Enter the Airport ICAO Code

Search by Airport or City

Current Weather

SPRU | FAP Captain Carlos Martínez de Pinillos International Airport

Trujillo, Peru

Last Update 30 Minutes Ago

Mostly Cloudy Sky

Temperature of 19 ºC

Light to Moderate Winds from SouthEast

Temperature

19 ºC

Dew Point Temperature

17 ºC

Relative Humidity

88.25 %

Wind Direction

SouthEast (130º, Without Significant Variations)

Wind Velocity

9 km/h (05 kt)

Gusts

None

Visibility

Reduced to 8.0 Kilometers

Sea Level Pressure

1010 hPa (Hectopascals)

Layers of Clouds

60% to 90% of Sky Covered from 4572 mts (15000 ft) Above Ground Level.

METAR SPRU 160800Z 13005KT 8000 BKN150 19/17 Q1010 RMK BR PP000

Weather Forecast

SPRU | FAP Captain Carlos Martínez de Pinillos International Airport

Trujillo, Peru

Forecast valid for the next 16 Hours

From now on it is expected:

Mist

In 6 to 10 hours it is expected the begining of:

Mostly Cloudy Sky

In 13 hours it is expected the begining of:

Clear Sky

Moderate Winds from South

Maximum Temperature

23 ºC in 11 Hours

Minimum Temperature

20 ºC in 3 Hours

TAF SPRU 152300Z 1600/1624 15008KT 9999 BKN020 SCT050 TX23/1619Z TN20/1611Z FM160400 14005KT 8000 BKN015 SCT150 BECMG 1608/1010 5000 BR OVC010 BECMG 1614/1618 8000 NSW BKN040 BKN120 FM162100 17012KT CAVOK